createdAt,value
2019-06-07T00:00:29.654Z,0.00
2019-06-07T00:01:08.501Z,0.00
2019-06-07T00:02:08.220Z,0.00
2019-06-07T00:03:10.751Z,0.00
2019-06-07T00:04:09.941Z,0.00
2019-06-07T00:05:09.820Z,0.00
2019-06-07T00:06:13.028Z,0.00
2019-06-07T00:07:09.023Z,0.00
2019-06-07T00:08:14.685Z,0.00
2019-06-07T00:09:09.957Z,0.00
2019-06-07T00:10:09.514Z,0.00
2019-06-07T00:11:11.082Z,0.00
2019-06-07T00:12:09.544Z,0.00
2019-06-07T00:13:09.707Z,0.00
2019-06-07T00:14:08.691Z,0.00
2019-06-07T00:15:11.771Z,0.00
2019-06-07T00:16:08.805Z,0.00
2019-06-07T00:17:11.210Z,0.00
2019-06-07T00:18:11.121Z,0.00
2019-06-07T00:19:09.582Z,0.00
2019-06-07T00:20:13.160Z,0.00
2019-06-07T00:21:09.790Z,0.00
2019-06-07T00:22:29.134Z,0.00
2019-06-07T00:23:11.370Z,0.00
2019-06-07T00:24:12.633Z,0.00
2019-06-07T00:25:12.576Z,0.00
2019-06-07T00:26:10.728Z,0.00
2019-06-07T00:27:11.005Z,0.00
2019-06-07T00:28:17.372Z,0.00
2019-06-07T00:30:29.803Z,0.00
2019-06-07T00:31:01.187Z,0.00
2019-06-07T00:32:53.182Z,0.00
2019-06-07T00:33:53.182Z,0.00
2019-06-07T00:35:55.318Z,0.00
2019-06-07T00:36:55.350Z,0.00
2019-06-07T00:38:57.488Z,0.00
2019-06-07T00:40:13.345Z,0.00
2019-06-07T00:41:49.732Z,0.00
2019-06-07T00:42:49.762Z,0.00
2019-06-07T00:44:51.899Z,0.00
2019-06-07T00:45:51.934Z,0.00
2019-06-07T00:47:54.117Z,0.00
2019-06-07T00:48:54.102Z,0.00
2019-06-07T00:50:56.241Z,0.00
2019-06-07T00:51:56.272Z,0.00
2019-06-07T00:53:48.191Z,0.00
2019-06-07T00:54:48.219Z,0.00
2019-06-07T00:56:50.445Z,0.00
2019-06-07T00:57:50.472Z,0.00
2019-06-07T00:59:10.151Z,0.00
2019-06-07T00:59:50.603Z,0.00
2019-06-07T01:00:50.621Z,0.00
2019-06-07T01:01:50.656Z,0.00
2019-06-07T01:02:50.712Z,0.00
2019-06-07T01:03:50.723Z,0.00
2019-06-07T01:04:50.727Z,0.00
2019-06-07T01:05:50.756Z,0.00
2019-06-07T01:06:50.799Z,0.00
2019-06-07T01:07:50.834Z,0.00
2019-06-07T01:08:50.868Z,0.00
2019-06-07T01:09:50.905Z,0.00
2019-06-07T01:10:53.893Z,0.00
2019-06-07T01:11:50.979Z,0.00
2019-06-07T01:12:51.011Z,0.00
2019-06-07T01:13:51.060Z,0.00
2019-06-07T01:14:51.078Z,0.00
2019-06-07T01:15:51.114Z,0.00
2019-06-07T01:16:57.169Z,0.00
2019-06-07T01:18:33.042Z,0.00
2019-06-07T01:18:51.526Z,0.00
2019-06-07T01:19:51.264Z,0.00
2019-06-07T01:20:51.294Z,0.00
2019-06-07T01:21:51.336Z,0.00
2019-06-07T01:22:51.368Z,0.00
2019-06-07T01:24:10.890Z,0.00
2019-06-07T01:24:51.432Z,0.00
2019-06-07T01:25:51.508Z,0.00
2019-06-07T01:26:51.515Z,0.00
2019-06-07T01:27:51.537Z,0.00
2019-06-07T01:28:51.578Z,0.00
2019-06-07T01:29:51.614Z,0.00
2019-06-07T01:30:51.655Z,0.00
2019-06-07T01:31:51.689Z,0.00
2019-06-07T01:32:51.723Z,0.00
2019-06-07T01:33:51.761Z,0.00
2019-06-07T01:34:51.797Z,0.00
2019-06-07T01:35:51.832Z,0.00
2019-06-07T01:36:51.869Z,0.00
2019-06-07T01:37:51.906Z,0.00
2019-06-07T01:38:51.938Z,0.00
2019-06-07T01:39:51.974Z,0.00
2019-06-07T01:40:52.015Z,0.00
2019-06-07T01:41:52.049Z,0.00
2019-06-07T01:42:52.085Z,0.00
2019-06-07T01:43:52.123Z,0.00
2019-06-07T01:44:52.153Z,0.00
2019-06-07T01:45:52.183Z,0.00
2019-06-07T01:46:52.220Z,0.00
2019-06-07T01:47:52.265Z,0.00
2019-06-07T01:48:52.294Z,0.00
2019-06-07T01:49:52.334Z,0.00
2019-06-07T01:50:52.368Z,0.00
2019-06-07T01:51:52.402Z,0.00
2019-06-07T01:52:52.439Z,0.00
2019-06-07T01:54:41.454Z,0.00
2019-06-07T01:54:58.446Z,0.00
2019-06-07T01:55:52.546Z,0.00
2019-06-07T01:56:52.579Z,0.00
2019-06-07T01:57:52.615Z,0.00
2019-06-07T01:58:52.652Z,0.00
2019-06-07T01:59:52.692Z,0.00
2019-06-07T02:00:52.722Z,0.00
2019-06-07T02:01:52.758Z,0.00
2019-06-07T02:02:52.798Z,0.00
2019-06-07T02:03:52.835Z,0.00
2019-06-07T02:04:52.863Z,0.00
2019-06-07T02:05:52.889Z,0.00
2019-06-07T02:06:52.932Z,0.00
2019-06-07T02:07:52.969Z,0.00
2019-06-07T02:08:53.004Z,0.00
2019-06-07T02:09:53.077Z,0.00
2019-06-07T02:10:53.080Z,0.00
2019-06-07T02:11:53.108Z,0.00
2019-06-07T02:12:53.163Z,0.00
2019-06-07T02:13:53.186Z,0.00
2019-06-07T02:14:53.232Z,0.00
2019-06-07T02:15:53.272Z,0.00
2019-06-07T02:16:53.301Z,0.00
2019-06-07T02:17:53.326Z,0.00
2019-06-07T02:19:01.634Z,0.00
2019-06-07T02:19:53.423Z,0.00
2019-06-07T02:20:53.431Z,0.00
2019-06-07T02:21:53.473Z,0.00
2019-06-07T02:22:53.508Z,0.00
2019-06-07T02:23:53.574Z,0.00
2019-06-07T02:25:34.388Z,0.00
2019-06-07T02:25:53.604Z,0.00
2019-06-07T02:26:53.640Z,0.00
2019-06-07T02:28:11.095Z,0.00
2019-06-07T02:28:53.717Z,0.00
2019-06-07T02:29:53.753Z,0.00
2019-06-07T02:31:00.109Z,0.00
2019-06-07T02:31:53.823Z,0.00
2019-06-07T02:32:53.854Z,0.00
2019-06-07T02:33:53.894Z,0.00
2019-06-07T02:34:53.931Z,0.00
2019-06-07T02:35:53.966Z,0.00
2019-06-07T02:36:54.001Z,0.00
2019-06-07T02:37:54.041Z,0.00
2019-06-07T02:38:54.076Z,0.00
2019-06-07T02:39:54.109Z,0.00
2019-06-07T02:40:54.142Z,0.00
2019-06-07T02:41:54.249Z,0.00
2019-06-07T02:42:54.216Z,0.00
2019-06-07T02:43:54.253Z,0.00
2019-06-07T02:44:54.266Z,0.00
2019-06-07T02:45:54.294Z,0.00
2019-06-07T02:46:54.380Z,0.00
2019-06-07T02:47:54.433Z,0.00
2019-06-07T02:48:54.426Z,0.00
2019-06-07T02:49:54.444Z,0.00
2019-06-07T02:50:54.499Z,0.00
2019-06-07T02:51:54.531Z,0.00
2019-06-07T02:52:54.570Z,0.00
2019-06-07T02:53:54.616Z,0.00
2019-06-07T02:54:54.642Z,0.00
2019-06-07T02:56:35.406Z,0.00
2019-06-07T02:56:58.459Z,0.00
2019-06-07T02:57:54.749Z,0.00
2019-06-07T02:58:54.779Z,0.00
2019-06-07T03:00:07.780Z,0.00
2019-06-07T03:01:06.569Z,0.00
2019-06-07T03:01:54.891Z,0.00
2019-06-07T03:02:54.922Z,0.00
2019-06-07T03:03:54.962Z,0.00
2019-06-07T03:04:54.989Z,0.00
2019-06-07T03:05:55.023Z,0.00
2019-06-07T03:06:56.333Z,0.00
2019-06-07T03:07:55.102Z,0.00
2019-06-07T03:08:55.140Z,0.00
2019-06-07T03:09:55.174Z,0.00
2019-06-07T03:10:55.206Z,0.00
2019-06-07T03:11:57.180Z,0.00
2019-06-07T03:12:56.673Z,0.00
2019-06-07T03:13:57.093Z,0.00
2019-06-07T03:14:55.341Z,0.00
2019-06-07T03:15:55.388Z,0.00
2019-06-07T03:16:55.417Z,0.00
2019-06-07T03:17:55.447Z,0.00
2019-06-07T03:18:55.486Z,0.00
2019-06-07T03:19:55.522Z,0.00
2019-06-07T03:21:04.958Z,0.00
2019-06-07T03:21:55.594Z,0.00
2019-06-07T03:22:55.628Z,0.00
2019-06-07T03:23:55.664Z,0.00
2019-06-07T03:24:55.691Z,0.00
2019-06-07T03:25:55.727Z,0.00
2019-06-07T03:27:34.280Z,0.00
2019-06-07T03:27:55.804Z,0.00
2019-06-07T03:28:55.880Z,0.00
2019-06-07T03:29:55.876Z,0.00
2019-06-07T03:31:02.316Z,0.00
2019-06-07T03:31:55.950Z,0.00
2019-06-07T03:32:55.983Z,0.00
2019-06-07T03:33:56.015Z,0.00
2019-06-07T03:34:56.049Z,0.00
2019-06-07T03:35:56.082Z,0.00
2019-06-07T03:36:56.119Z,0.00
2019-06-07T03:37:56.158Z,0.00
2019-06-07T03:38:56.192Z,0.00
2019-06-07T03:39:56.225Z,0.00
2019-06-07T03:40:56.265Z,0.00
2019-06-07T03:42:06.315Z,0.00
2019-06-07T03:42:56.334Z,0.00
2019-06-07T03:43:56.361Z,0.00
2019-06-07T03:44:56.411Z,0.00
2019-06-07T03:45:56.429Z,0.00
2019-06-07T03:46:56.485Z,0.00
2019-06-07T03:47:56.509Z,0.00
2019-06-07T03:48:56.534Z,0.00
2019-06-07T03:49:56.587Z,0.00
2019-06-07T03:51:04.654Z,0.00
2019-06-07T03:51:56.743Z,0.00
2019-06-07T03:52:56.733Z,0.00
2019-06-07T03:53:56.788Z,0.00
2019-06-07T03:54:56.763Z,0.00
2019-06-07T03:55:56.789Z,0.00
2019-06-07T03:56:56.827Z,0.00
2019-06-07T03:58:56.898Z,0.00
2019-06-07T03:59:56.927Z,0.00
2019-06-07T04:00:58.741Z,0.00
2019-06-07T04:01:57.001Z,0.00
2019-06-07T04:02:57.027Z,0.00
2019-06-07T04:03:57.062Z,0.00
2019-06-07T04:04:57.102Z,0.00
2019-06-07T04:05:57.131Z,0.00
2019-06-07T04:06:57.175Z,0.00
2019-06-07T04:07:57.209Z,0.00
2019-06-07T04:08:57.248Z,0.00
2019-06-07T04:09:57.281Z,0.00
2019-06-07T04:11:00.250Z,5.63
2019-06-07T04:11:57.349Z,5.63
2019-06-07T04:12:57.390Z,5.63
2019-06-07T04:13:57.421Z,5.63
2019-06-07T04:14:57.454Z,5.63
2019-06-07T04:15:57.493Z,5.63
2019-06-07T04:16:57.527Z,5.63
2019-06-07T04:18:02.309Z,5.63
2019-06-07T04:18:57.600Z,5.63
2019-06-07T04:19:57.632Z,5.63
2019-06-07T04:20:57.670Z,5.63
2019-06-07T04:21:57.707Z,5.63
2019-06-07T04:22:57.737Z,5.63
2019-06-07T04:23:57.764Z,5.63
2019-06-07T04:24:57.802Z,5.63
2019-06-07T04:25:57.834Z,5.63
2019-06-07T04:26:57.871Z,5.63
2019-06-07T04:27:57.906Z,5.63
2019-06-07T04:30:07.079Z,5.63
2019-06-07T04:30:58.072Z,5.63
2019-06-07T04:31:58.069Z,5.63
2019-06-07T04:32:58.088Z,5.63
2019-06-07T04:33:58.143Z,5.63
2019-06-07T04:34:58.157Z,5.63
2019-06-07T04:35:58.193Z,5.63
2019-06-07T04:36:59.590Z,5.63
2019-06-07T04:37:58.263Z,5.63
2019-06-07T04:38:58.297Z,5.63
2019-06-07T04:39:58.343Z,5.63
2019-06-07T04:40:58.369Z,5.63
2019-06-07T04:41:58.400Z,5.63
2019-06-07T04:42:58.440Z,5.63
2019-06-07T04:43:58.488Z,5.63
2019-06-07T04:44:58.500Z,5.63
2019-06-07T04:45:58.543Z,5.63
2019-06-07T04:46:58.568Z,5.63
2019-06-07T04:47:58.604Z,5.63
2019-06-07T04:48:58.649Z,5.63
2019-06-07T04:49:58.695Z,5.63
2019-06-07T04:50:58.722Z,5.63
2019-06-07T04:51:58.753Z,5.63
2019-06-07T04:52:58.788Z,5.63
2019-06-07T04:53:58.822Z,5.63
2019-06-07T04:54:58.859Z,5.63
2019-06-07T04:55:58.893Z,5.63
2019-06-07T04:56:58.936Z,5.63
2019-06-07T04:57:58.961Z,5.63
2019-06-07T04:58:59.005Z,5.63
2019-06-07T05:00:12.742Z,5.63
2019-06-07T05:01:03.396Z,11.25
2019-06-07T05:01:59.106Z,11.25
2019-06-07T05:02:59.139Z,11.25
2019-06-07T05:03:59.165Z,11.25
2019-06-07T05:04:59.202Z,11.25
2019-06-07T05:05:59.238Z,11.25
2019-06-07T05:06:59.333Z,11.25
2019-06-07T05:08:07.239Z,11.25
2019-06-07T05:08:59.348Z,11.25
2019-06-07T05:09:59.390Z,11.25
2019-06-07T05:10:59.483Z,11.25
2019-06-07T05:11:59.454Z,11.25
2019-06-07T05:12:59.502Z,11.25
2019-06-07T05:13:59.529Z,11.25
2019-06-07T05:14:59.562Z,11.25
2019-06-07T05:15:59.595Z,11.25
2019-06-07T05:16:59.627Z,11.25
2019-06-07T05:17:59.662Z,11.25
2019-06-07T05:18:59.696Z,11.25
2019-06-07T05:19:59.736Z,11.25
2019-06-07T05:20:59.845Z,11.25
2019-06-07T05:22:04.297Z,11.25
2019-06-07T05:22:59.841Z,11.25
2019-06-07T05:24:07.552Z,11.25
2019-06-07T05:24:59.911Z,11.25
2019-06-07T05:25:59.948Z,11.25
2019-06-07T05:26:59.982Z,11.25
2019-06-07T05:28:00.019Z,11.25
2019-06-07T05:29:00.042Z,11.25
2019-06-07T05:30:09.406Z,11.25
2019-06-07T05:31:05.177Z,11.25
2019-06-07T05:32:00.155Z,11.25
2019-06-07T05:33:00.203Z,11.25
2019-06-07T05:34:00.219Z,11.25
2019-06-07T05:35:00.281Z,11.25
2019-06-07T05:36:00.295Z,11.25
2019-06-07T05:37:11.805Z,11.25
2019-06-07T05:38:00.366Z,11.25
2019-06-07T05:39:00.407Z,11.25
2019-06-07T05:40:00.437Z,11.25
2019-06-07T05:41:00.477Z,11.25
2019-06-07T05:42:00.507Z,11.25
2019-06-07T05:43:00.543Z,11.25
2019-06-07T05:44:12.028Z,11.25
2019-06-07T05:45:00.613Z,11.25
2019-06-07T05:46:00.635Z,11.25
2019-06-07T05:47:00.680Z,11.25
2019-06-07T05:48:02.728Z,11.25
2019-06-07T05:49:00.773Z,11.25
2019-06-07T05:50:00.814Z,11.25
2019-06-07T05:51:00.822Z,11.25
2019-06-07T05:52:00.858Z,11.25
2019-06-07T05:53:00.898Z,11.25
2019-06-07T05:54:00.929Z,11.25
2019-06-07T05:55:00.957Z,11.25
2019-06-07T05:56:01.011Z,11.25
2019-06-07T05:57:01.030Z,11.25
2019-06-07T05:58:01.069Z,11.25
2019-06-07T05:59:01.103Z,11.25
2019-06-07T06:00:01.136Z,11.25
2019-06-07T06:01:41.374Z,11.25
2019-06-07T06:02:13.977Z,11.25
2019-06-07T06:03:05.701Z,11.25
2019-06-07T06:04:01.285Z,11.25
2019-06-07T06:05:01.418Z,11.25
2019-06-07T06:06:01.341Z,11.25
2019-06-07T06:07:01.377Z,11.25
2019-06-07T06:08:01.418Z,11.25
2019-06-07T06:09:13.493Z,11.25
2019-06-07T06:10:01.494Z,11.25
2019-06-07T06:11:01.529Z,11.25
2019-06-07T06:12:02.606Z,11.25
2019-06-07T06:13:01.605Z,11.25
2019-06-07T06:14:07.994Z,11.25
2019-06-07T06:15:01.666Z,11.25
2019-06-07T06:16:02.542Z,11.25
2019-06-07T06:17:01.743Z,11.25
2019-06-07T06:18:01.773Z,11.25
2019-06-07T06:19:01.807Z,11.25
2019-06-07T06:20:01.854Z,11.25
2019-06-07T06:21:16.298Z,11.25
2019-06-07T06:22:01.913Z,11.25
2019-06-07T06:23:01.956Z,11.25
2019-06-07T06:24:02.021Z,11.25
2019-06-07T06:25:30.614Z,11.25
2019-06-07T06:26:02.047Z,11.25
2019-06-07T06:27:18.937Z,11.25
2019-06-07T06:28:11.446Z,11.25
2019-06-07T06:29:08.789Z,11.25
2019-06-07T06:30:55.123Z,11.25
2019-06-07T06:32:40.039Z,11.25
2019-06-07T06:33:58.175Z,11.25
2019-06-07T06:34:58.201Z,11.25
2019-06-07T06:36:51.427Z,11.25
2019-06-07T06:37:53.228Z,11.25
2019-06-07T06:39:46.605Z,11.25
2019-06-07T06:40:47.040Z,11.25
2019-06-07T06:42:35.743Z,11.25
2019-06-07T06:43:35.776Z,11.25
2019-06-07T06:45:28.946Z,11.25
2019-06-07T06:46:38.806Z,11.25
2019-06-07T06:48:21.934Z,11.25
2019-06-07T06:49:21.967Z,11.25
2019-06-07T06:51:24.105Z,11.25
2019-06-07T06:52:24.120Z,11.25
2019-06-07T06:54:40.116Z,11.25
2019-06-07T06:55:26.669Z,11.25
2019-06-07T06:57:20.424Z,11.25
2019-06-07T06:58:19.132Z,11.25
2019-06-07T07:00:11.197Z,11.25
2019-06-07T07:01:11.177Z,11.25
2019-06-07T07:03:55.966Z,11.25
2019-06-07T07:04:14.466Z,11.25
2019-06-07T07:06:25.726Z,11.25
2019-06-07T07:07:18.544Z,11.25
2019-06-07T07:09:22.593Z,11.25
2019-06-07T07:10:22.626Z,11.25
2019-06-07T07:12:24.759Z,11.25
2019-06-07T07:13:24.788Z,11.25
2019-06-07T07:15:27.180Z,11.25
2019-06-07T07:16:27.210Z,11.25
2019-06-07T07:18:19.527Z,11.25
2019-06-07T07:19:19.574Z,11.25
2019-06-07T07:21:12.499Z,11.25
2019-06-07T07:22:12.531Z,16.88
2019-06-07T07:24:21.631Z,16.88
2019-06-07T07:25:14.898Z,16.88
2019-06-07T07:27:06.944Z,16.88
2019-06-07T07:28:06.967Z,16.88
2019-06-07T07:30:34.653Z,16.88
2019-06-07T07:31:00.241Z,16.88
2019-06-07T07:32:54.152Z,16.88
2019-06-07T07:34:31.015Z,16.88
2019-06-07T07:36:08.092Z,16.88
2019-06-07T07:36:48.206Z,16.88
2019-06-07T07:38:38.557Z,16.88
2019-06-07T07:39:38.589Z,16.88
2019-06-07T07:41:31.766Z,16.88
2019-06-07T07:42:31.778Z,16.88
2019-06-07T07:44:24.940Z,16.88
2019-06-07T07:45:24.973Z,16.88
2019-06-07T07:47:17.045Z,16.88
2019-06-07T07:48:18.656Z,16.88
2019-06-07T07:50:19.250Z,16.88
2019-06-07T07:51:19.290Z,16.88
2019-06-07T07:53:11.233Z,16.88
2019-06-07T07:54:11.439Z,16.88
2019-06-07T07:56:03.465Z,16.88
2019-06-07T07:57:03.321Z,16.88
2019-06-07T07:59:08.052Z,16.88
2019-06-07T08:00:48.671Z,16.88
2019-06-07T08:01:58.787Z,16.88
2019-06-07T08:03:02.286Z,16.88
2019-06-07T08:05:17.718Z,16.88
2019-06-07T08:05:54.253Z,16.88
2019-06-07T08:07:56.707Z,11.25
2019-06-07T08:08:55.896Z,16.88
2019-06-07T08:10:48.028Z,16.88
2019-06-07T08:11:47.295Z,16.88
2019-06-07T08:13:37.923Z,16.88
2019-06-07T08:14:37.963Z,16.88
2019-06-07T08:16:30.901Z,16.88
2019-06-07T08:17:30.966Z,16.88
2019-06-07T08:19:23.180Z,16.88
2019-06-07T08:20:23.201Z,16.88
2019-06-07T08:22:15.235Z,16.88
2019-06-07T08:23:15.239Z,16.88
2019-06-07T08:25:07.401Z,22.50
2019-06-07T08:26:07.503Z,22.50
2019-06-07T08:27:59.411Z,22.50
2019-06-07T08:29:02.721Z,22.50
2019-06-07T08:31:12.327Z,22.50
2019-06-07T08:32:12.359Z,22.50
2019-06-07T08:34:05.298Z,22.50
2019-06-07T08:35:06.724Z,22.50
2019-06-07T08:37:01.753Z,22.50
2019-06-07T08:39:52.822Z,22.50
2019-06-07T08:40:56.825Z,22.50
2019-06-07T08:43:03.237Z,28.13
2019-06-07T08:43:42.822Z,28.13
2019-06-07T08:45:35.817Z,28.13
2019-06-07T08:46:35.801Z,28.13
2019-06-07T08:48:51.113Z,28.13
2019-06-07T08:49:50.657Z,28.13
2019-06-07T08:51:41.219Z,33.75
2019-06-07T08:52:41.257Z,33.75
2019-06-07T08:54:43.676Z,33.75
2019-06-07T08:55:43.707Z,33.75
2019-06-07T08:57:35.968Z,28.13
2019-06-07T08:58:36.003Z,28.13
2019-06-07T09:00:46.110Z,28.13
2019-06-07T09:01:39.104Z,33.75
2019-06-07T09:03:32.314Z,33.75
2019-06-07T09:04:32.298Z,33.75
2019-06-07T09:07:24.448Z,33.75
2019-06-07T09:09:26.822Z,33.75
2019-06-07T09:10:26.847Z,33.75
2019-06-07T09:12:18.925Z,33.75
2019-06-07T09:13:18.995Z,33.75
2019-06-07T09:15:21.337Z,33.75
2019-06-07T09:16:11.110Z,33.75
2019-06-07T09:19:14.180Z,33.75
2019-06-07T09:21:09.443Z,33.75
2019-06-07T09:22:10.826Z,33.75
2019-06-07T09:24:11.907Z,33.75
2019-06-07T09:25:20.161Z,33.75
2019-06-07T09:27:05.173Z,33.75
2019-06-07T09:28:10.152Z,33.75
2019-06-07T09:30:00.648Z,33.75
2019-06-07T09:30:57.130Z,33.75
2019-06-07T09:32:58.871Z,33.75
2019-06-07T09:34:05.874Z,33.75
2019-06-07T09:35:50.142Z,33.75
2019-06-07T09:36:50.107Z,33.75
2019-06-07T09:38:43.079Z,39.38
2019-06-07T09:39:43.077Z,33.75
2019-06-07T09:41:49.960Z,33.75
2019-06-07T09:42:45.645Z,33.75
2019-06-07T09:44:38.022Z,39.38
2019-06-07T09:45:38.046Z,39.38
2019-06-07T09:47:40.129Z,39.38
2019-06-07T09:49:14.569Z,39.38
2019-06-07T09:50:33.614Z,39.38
2019-06-07T09:51:33.628Z,39.38
2019-06-07T09:52:55.342Z,39.38
2019-06-07T09:53:33.704Z,39.38
2019-06-07T09:55:09.222Z,39.38
2019-06-07T09:55:33.779Z,39.38
2019-06-07T09:56:33.817Z,39.38
2019-06-07T09:57:33.865Z,39.38
2019-06-07T09:58:52.551Z,39.38
2019-06-07T09:59:33.936Z,39.38
2019-06-07T10:00:40.871Z,39.38
2019-06-07T10:01:34.008Z,39.38
2019-06-07T10:02:34.057Z,39.38
2019-06-07T10:03:34.086Z,39.38
2019-06-07T10:04:34.131Z,39.38
2019-06-07T10:05:34.176Z,39.38
2019-06-07T10:06:34.198Z,39.38
2019-06-07T10:07:34.247Z,39.38
2019-06-07T10:09:56.986Z,39.38
2019-06-07T10:11:34.394Z,39.38
2019-06-07T10:12:34.432Z,39.38
2019-06-07T10:13:34.471Z,39.38
2019-06-07T10:14:34.507Z,39.38
2019-06-07T10:15:34.547Z,39.38
2019-06-07T10:16:46.176Z,39.38
2019-06-07T10:17:34.622Z,39.38
2019-06-07T10:18:34.662Z,33.75
2019-06-07T10:19:34.701Z,33.75
2019-06-07T10:20:34.738Z,33.75
2019-06-07T10:21:34.779Z,39.38
2019-06-07T10:22:34.817Z,39.38
2019-06-07T10:23:34.854Z,39.38
2019-06-07T10:24:34.893Z,39.38
2019-06-07T10:25:34.939Z,39.38
2019-06-07T10:26:34.969Z,39.38
2019-06-07T10:27:35.012Z,39.38
2019-06-07T10:28:35.046Z,33.75
2019-06-07T10:29:35.088Z,33.75
2019-06-07T10:30:35.126Z,33.75
2019-06-07T10:31:35.168Z,33.75
2019-06-07T10:32:35.200Z,33.75
2019-06-07T10:33:35.241Z,33.75
2019-06-07T10:34:35.279Z,33.75
2019-06-07T10:35:35.317Z,33.75
2019-06-07T10:36:35.358Z,33.75
2019-06-07T10:37:35.394Z,39.38
2019-06-07T10:38:35.432Z,33.75
2019-06-07T10:39:48.000Z,33.75
2019-06-07T10:40:35.510Z,39.38
2019-06-07T10:41:35.549Z,39.38
2019-06-07T10:42:35.591Z,39.38
2019-06-07T10:43:35.627Z,39.38
2019-06-07T10:44:35.664Z,39.38
2019-06-07T10:45:35.710Z,39.38
2019-06-07T10:46:35.745Z,39.38
2019-06-07T10:47:35.785Z,39.38
2019-06-07T10:48:35.819Z,39.38
2019-06-07T10:49:35.858Z,39.38
2019-06-07T10:50:35.895Z,39.38
2019-06-07T10:51:35.935Z,39.38
2019-06-07T10:52:35.977Z,39.38
2019-06-07T10:53:36.014Z,39.38
2019-06-07T10:54:36.055Z,39.38
2019-06-07T10:55:36.091Z,45.00
2019-06-07T10:56:36.129Z,45.00
2019-06-07T10:57:36.172Z,45.00
2019-06-07T10:58:36.208Z,45.00
2019-06-07T10:59:36.251Z,45.00
2019-06-07T11:00:36.288Z,45.00
2019-06-07T11:01:36.324Z,45.00
2019-06-07T11:02:36.364Z,45.00
2019-06-07T11:03:36.408Z,39.38
2019-06-07T11:04:36.442Z,39.38
2019-06-07T11:05:36.481Z,39.38
2019-06-07T11:06:36.520Z,39.38
2019-06-07T11:07:36.560Z,39.38
2019-06-07T11:08:36.598Z,45.00
2019-06-07T11:09:36.636Z,39.38
2019-06-07T11:10:36.674Z,45.00
2019-06-07T11:11:36.714Z,39.38
2019-06-07T11:12:36.756Z,39.38
2019-06-07T11:13:36.795Z,45.00
2019-06-07T11:14:36.833Z,45.00
2019-06-07T11:15:36.879Z,45.00
2019-06-07T11:16:36.911Z,45.00
2019-06-07T11:17:36.954Z,45.00
2019-06-07T11:18:36.989Z,45.00
2019-06-07T11:19:37.026Z,45.00
2019-06-07T11:20:37.065Z,45.00
2019-06-07T11:21:37.104Z,45.00
2019-06-07T11:22:37.146Z,45.00
2019-06-07T11:23:37.182Z,45.00
2019-06-07T11:24:37.259Z,45.00
2019-06-07T11:25:37.258Z,45.00
2019-06-07T11:26:37.303Z,45.00
2019-06-07T11:27:37.339Z,45.00
2019-06-07T11:28:37.378Z,45.00
2019-06-07T11:29:37.414Z,45.00
2019-06-07T11:30:37.454Z,45.00
2019-06-07T11:31:37.492Z,45.00
2019-06-07T11:32:37.534Z,39.38
2019-06-07T11:33:37.588Z,45.00
2019-06-07T11:34:37.609Z,39.38
2019-06-07T11:35:37.657Z,45.00
2019-06-07T11:36:37.752Z,45.00
2019-06-07T11:37:37.727Z,45.00
2019-06-07T11:38:37.765Z,45.00
2019-06-07T11:39:37.806Z,45.00
2019-06-07T11:40:37.843Z,39.38
2019-06-07T11:41:37.882Z,39.38
2019-06-07T11:42:37.922Z,39.38
2019-06-07T11:43:37.965Z,39.38
2019-06-07T11:44:38.002Z,39.38
2019-06-07T11:45:38.038Z,39.38
2019-06-07T11:46:38.078Z,39.38
2019-06-07T11:47:38.118Z,33.75
2019-06-07T11:48:38.157Z,33.75
2019-06-07T11:49:38.196Z,33.75
2019-06-07T11:50:38.235Z,33.75
2019-06-07T11:51:38.275Z,39.38
2019-06-07T11:52:39.283Z,39.38
2019-06-07T11:53:38.404Z,39.38
2019-06-07T11:54:38.393Z,39.38
2019-06-07T11:55:38.433Z,39.38
2019-06-07T11:56:38.470Z,39.38
2019-06-07T11:57:38.521Z,39.38
2019-06-07T11:58:38.549Z,39.38
2019-06-07T11:59:38.600Z,39.38
2019-06-07T12:00:38.634Z,39.38
2019-06-07T12:01:38.669Z,39.38
2019-06-07T12:02:38.707Z,39.38
2019-06-07T12:03:38.746Z,39.38
2019-06-07T12:04:38.786Z,39.38
2019-06-07T12:05:38.831Z,39.38
2019-06-07T12:06:38.877Z,39.38
2019-06-07T12:07:38.906Z,39.38
2019-06-07T12:08:38.943Z,45.00
2019-06-07T12:09:52.976Z,45.00
2019-06-07T12:10:42.405Z,45.00
2019-06-07T12:11:39.061Z,45.00
2019-06-07T12:12:39.102Z,45.00
2019-06-07T12:13:39.144Z,45.00
2019-06-07T12:14:39.180Z,45.00
2019-06-07T12:15:39.222Z,45.00
2019-06-07T12:16:39.265Z,39.38
2019-06-07T12:17:39.298Z,39.38
2019-06-07T12:18:39.337Z,39.38
2019-06-07T12:19:39.378Z,45.00
2019-06-07T12:20:39.423Z,45.00
2019-06-07T12:21:39.474Z,39.38
2019-06-07T12:22:39.520Z,39.38
2019-06-07T12:23:39.535Z,39.38
2019-06-07T12:24:39.576Z,39.38
2019-06-07T12:25:39.685Z,39.38
2019-06-07T12:26:39.654Z,45.00
2019-06-07T12:27:39.693Z,45.00
2019-06-07T12:28:39.738Z,45.00
2019-06-07T12:29:46.165Z,45.00
2019-06-07T12:31:41.833Z,45.00
2019-06-07T12:32:41.844Z,45.00
2019-06-07T12:34:33.996Z,45.00
2019-06-07T12:35:34.033Z,45.00
2019-06-07T12:37:43.614Z,39.38
2019-06-07T12:38:36.103Z,39.38
2019-06-07T12:40:32.238Z,33.75
2019-06-07T12:41:28.096Z,33.75
2019-06-07T12:43:30.174Z,33.75
2019-06-07T12:44:30.166Z,33.75
2019-06-07T12:46:32.211Z,39.38
2019-06-07T12:47:32.240Z,39.38
2019-06-07T12:49:34.282Z,39.38
2019-06-07T12:50:42.408Z,39.38
2019-06-07T12:52:36.362Z,39.38
2019-06-07T12:53:36.406Z,39.38
2019-06-07T12:55:38.472Z,39.38
2019-06-07T12:56:38.504Z,39.38
2019-06-07T12:58:40.520Z,39.38
2019-06-07T12:59:40.553Z,39.38
2019-06-07T13:01:42.590Z,39.38
2019-06-07T13:02:42.625Z,45.00
2019-06-07T13:04:44.675Z,39.38
2019-06-07T13:05:44.698Z,39.38
2019-06-07T13:07:46.763Z,39.38
2019-06-07T13:08:46.770Z,39.38
2019-06-07T13:10:38.726Z,39.38
2019-06-07T13:11:38.759Z,39.38
2019-06-07T13:13:40.791Z,33.75
2019-06-07T13:14:40.838Z,33.75
2019-06-07T13:16:42.856Z,33.75
2019-06-07T13:17:42.890Z,33.75
2019-06-07T13:19:44.965Z,33.75
2019-06-07T13:20:44.972Z,33.75
2019-06-07T13:22:47.005Z,28.13
2019-06-07T13:23:47.041Z,33.75
2019-06-07T13:25:49.129Z,33.75
2019-06-07T13:26:49.110Z,33.75
2019-06-07T13:28:51.298Z,33.75
2019-06-07T13:29:51.182Z,33.75
2019-06-07T13:31:53.228Z,33.75
2019-06-07T13:32:53.263Z,33.75
2019-06-07T13:34:55.298Z,28.13
2019-06-07T13:35:55.332Z,28.13
2019-06-07T13:37:59.719Z,28.13
2019-06-07T13:38:57.411Z,28.13
2019-06-07T13:40:59.440Z,28.13
2019-06-07T13:41:59.472Z,28.13
2019-06-07T13:44:01.510Z,28.13
2019-06-07T13:45:01.542Z,28.13
2019-06-07T13:47:03.579Z,28.13
2019-06-07T13:48:03.611Z,28.13
2019-06-07T13:49:55.674Z,28.13
2019-06-07T13:50:55.604Z,28.13
2019-06-07T13:52:57.640Z,28.13
2019-06-07T13:53:57.682Z,28.13
2019-06-07T13:55:59.715Z,28.13
2019-06-07T13:57:02.569Z,28.13
2019-06-07T13:59:01.829Z,28.13
2019-06-07T14:00:09.956Z,28.13
2019-06-07T14:02:03.877Z,28.13
2019-06-07T14:03:03.887Z,28.13
2019-06-07T14:04:03.928Z,28.13
2019-06-07T14:05:03.967Z,28.13
2019-06-07T14:06:04.004Z,28.13
2019-06-07T14:07:04.123Z,28.13
2019-06-07T14:08:04.084Z,28.13
2019-06-07T14:09:04.125Z,28.13
2019-06-07T14:10:04.163Z,28.13
2019-06-07T14:11:04.203Z,28.13
2019-06-07T14:12:04.245Z,28.13
2019-06-07T14:13:04.280Z,28.13
2019-06-07T14:14:04.492Z,28.13
2019-06-07T14:15:04.374Z,28.13
2019-06-07T14:16:04.403Z,28.13
2019-06-07T14:17:04.439Z,28.13
2019-06-07T14:18:04.483Z,28.13
2019-06-07T14:19:04.518Z,22.50
2019-06-07T14:20:04.668Z,28.13
2019-06-07T14:21:04.600Z,28.13
2019-06-07T14:22:04.658Z,28.13
2019-06-07T14:23:04.678Z,28.13
2019-06-07T14:24:04.717Z,28.13
2019-06-07T14:25:04.757Z,28.13
2019-06-07T14:26:04.798Z,28.13
2019-06-07T14:27:04.840Z,28.13
2019-06-07T14:28:10.892Z,28.13
2019-06-07T14:29:04.915Z,28.13
2019-06-07T14:30:04.959Z,22.50
2019-06-07T14:31:04.998Z,22.50
2019-06-07T14:32:05.035Z,22.50
2019-06-07T14:33:05.076Z,22.50
2019-06-07T14:34:05.155Z,22.50
2019-06-07T14:35:05.153Z,22.50
2019-06-07T14:36:05.196Z,22.50
2019-06-07T14:37:05.241Z,22.50
2019-06-07T14:38:05.275Z,22.50
2019-06-07T14:39:05.314Z,22.50
2019-06-07T14:40:05.354Z,22.50
2019-06-07T14:41:05.394Z,22.50
2019-06-07T14:42:09.773Z,22.50
2019-06-07T14:43:05.474Z,22.50
2019-06-07T14:44:05.515Z,22.50
2019-06-07T14:45:06.335Z,22.50
2019-06-07T14:46:05.601Z,22.50
2019-06-07T14:47:05.632Z,22.50
2019-06-07T14:48:05.674Z,22.50
2019-06-07T14:49:05.719Z,22.50
2019-06-07T14:50:05.755Z,22.50
2019-06-07T14:51:05.792Z,22.50
2019-06-07T14:52:05.833Z,22.50
2019-06-07T14:53:05.875Z,22.50
2019-06-07T14:54:05.912Z,22.50
2019-06-07T14:55:05.954Z,22.50